Time;durP1;ratioP1;P1;durP2;ratioP2;P2;SDS_P1;SDS_P2;PMS_P1;PMS_P2;Temp;Humidity;BMP_temperature;BMP_pressure;BME280_temperature;BME280_humidity;BME280_pressure;Samples;Min_cycle;Max_cycle;Signal;HPM_P1;HPM_P2
2022/11/23 00:00:41;;;;;;;5.63;4.20;;;9.80;99.50;;;;;;5058724;28;20199;-66
2022/11/23 00:03:15;;;;;;;4.73;3.80;;;9.70;99.50;;;;;;5059244;28;20252;-66
2022/11/23 00:05:42;;;;;;;4.60;3.20;;;9.80;99.50;;;;;;5060817;28;20194;-66
2022/11/23 00:08:09;;;;;;;4.00;3.17;;;9.80;99.50;;;;;;5055262;28;20202;-66
2022/11/23 00:10:36;;;;;;;5.03;3.97;;;9.80;99.50;;;;;;5059912;28;20312;-66
2022/11/23 00:13:03;;;;;;;4.67;3.50;;;9.80;99.50;;;;;;5062811;28;20503;-66
2022/11/23 00:15:31;;;;;;;3.83;3.43;;;9.80;99.50;;;;;;5062222;28;20642;-66
2022/11/23 00:18:01;;;;;;;5.07;3.80;;;9.80;99.50;;;;;;5059001;28;20534;-66
2022/11/23 00:20:28;;;;;;;4.43;4.00;;;9.80;99.40;;;;;;5059002;28;20636;-66
2022/11/23 00:22:55;;;;;;;4.67;4.00;;;9.80;99.40;;;;;;5061889;28;20583;-66
2022/11/23 00:25:22;;;;;;;5.83;4.50;;;9.80;99.40;;;;;;5066011;28;20219;-66
2022/11/23 00:27:49;;;;;;;5.97;4.07;;;9.80;99.50;;;;;;5065320;28;20512;-66
2022/11/23 00:30:16;;;;;;;6.13;4.10;;;9.80;99.40;;;;;;5063832;28;20645;-66
2022/11/23 00:32:43;;;;;;;5.33;4.70;;;9.80;99.40;;;;;;5062031;28;20209;-66
2022/11/23 00:35:10;;;;;;;4.37;3.90;;;9.80;99.40;;;;;;5062392;28;20234;-66
2022/11/23 00:37:37;;;;;;;6.07;4.03;;;9.80;99.40;;;;;;5056208;28;20219;-66
2022/11/23 00:40:05;;;;;;;4.97;4.17;;;9.80;99.30;;;;;;5060651;28;20257;-66
2022/11/23 00:42:32;;;;;;;4.67;3.40;;;9.80;99.40;;;;;;5058950;28;20205;-66
2022/11/23 00:45:04;;;;;;;3.40;3.07;;;9.80;99.30;;;;;;5060020;28;20701;-66
2022/11/23 00:47:31;;;;;;;3.87;3.30;;;9.80;99.30;;;;;;5061929;28;20200;-66
2022/11/23 00:49:58;;;;;;;4.60;3.30;;;9.80;99.30;;;;;;5069087;28;20265;-66
2022/11/23 00:52:25;;;;;;;5.33;3.33;;;9.80;99.30;;;;;;5060481;28;20225;-66
2022/11/23 00:54:52;;;;;;;4.47;3.17;;;9.80;99.30;;;;;;5069461;28;20232;-66
2022/11/23 00:57:19;;;;;;;5.53;3.30;;;9.80;99.30;;;;;;5073054;28;20224;-66
2022/11/23 00:59:47;;;;;;;2.97;2.40;;;9.80;99.30;;;;;;5068257;28;20630;-66
2022/11/23 01:02:14;;;;;;;3.50;2.30;;;9.80;99.30;;;;;;5081027;28;20200;-66
2022/11/23 01:04:42;;;;;;;2.97;2.67;;;9.80;99.30;;;;;;5065619;28;20206;-66
2022/11/23 01:07:09;;;;;;;3.10;2.60;;;9.80;99.30;;;;;;5070665;28;20213;-66
2022/11/23 01:09:36;;;;;;;3.20;2.37;;;9.80;99.30;;;;;;5047639;28;20240;-66
2022/11/23 01:12:05;;;;;;;2.83;2.40;;;9.80;99.20;;;;;;5060838;28;20197;-66
2022/11/23 01:14:32;;;;;;;2.63;1.90;;;9.80;99.20;;;;;;5068585;28;20669;-66
2022/11/23 01:17:03;;;;;;;3.13;2.37;;;9.80;99.20;;;;;;5062414;28;20300;-66
2022/11/23 01:19:33;;;;;;;3.17;2.10;;;9.80;99.10;;;;;;5065227;28;20616;-66
2022/11/23 01:22:00;;;;;;;1.93;1.70;;;9.80;99.10;;;;;;5064279;28;20198;-66
2022/11/23 01:24:27;;;;;;;2.60;1.90;;;9.80;99.10;;;;;;5066344;28;20201;-66
2022/11/23 01:26:54;;;;;;;1.80;1.70;;;9.80;99.10;;;;;;5061175;28;20198;-66
2022/11/23 01:29:22;;;;;;;6.60;2.20;;;9.80;99.10;;;;;;5065294;28;20222;-66
2022/11/23 01:31:49;;;;;;;2.67;2.07;;;9.80;99.10;;;;;;5058439;28;20229;-66
2022/11/23 01:34:17;;;;;;;3.10;1.63;;;9.70;99.00;;;;;;5064259;28;20211;-66
2022/11/23 01:36:44;;;;;;;3.07;1.90;;;9.70;99.10;;;;;;5066076;28;20230;-66
2022/11/23 01:39:12;;;;;;;3.40;1.80;;;9.70;99.10;;;;;;5067103;28;20207;-66
2022/11/23 01:41:42;;;;;;;3.00;2.03;;;9.80;99.10;;;;;;5065174;28;20551;-66
2022/11/23 01:44:23;;;;;;;3.07;2.33;;;9.70;99.10;;;;;;5066405;28;20641;-66
2022/11/23 01:46:54;;;;;;;2.30;1.80;;;9.80;99.10;;;;;;5059605;28;20307;-66
2022/11/23 01:49:23;;;;;;;2.50;2.30;;;9.80;99.10;;;;;;5060183;28;20411;-66
2022/11/23 01:51:55;;;;;;;2.50;2.30;;;9.80;99.00;;;;;;5063590;28;20206;-66
2022/11/23 01:54:35;;;;;;;1.80;1.70;;;9.80;99.00;;;;;;5063876;28;20653;-66
2022/11/23 01:57:24;;;;;;;2.73;2.40;;;9.80;99.10;;;;;;5068667;28;20926;-66
2022/11/23 01:59:53;;;;;;;3.60;2.17;;;9.80;99.00;;;;;;5062909;28;20650;-66
2022/11/23 02:02:21;;;;;;;3.73;2.33;;;9.80;99.10;;;;;;5075453;28;20596;-66
2022/11/23 02:04:54;;;;;;;3.00;2.17;;;9.80;99.10;;;;;;5065735;28;20258;-66
2022/11/23 02:07:22;;;;;;;3.43;1.93;;;9.80;99.10;;;;;;5065042;28;20631;-66
2022/11/23 02:09:51;;;;;;;4.77;2.47;;;9.80;99.10;;;;;;5061206;28;20234;-66
2022/11/23 02:12:18;;;;;;;2.70;2.37;;;9.80;99.00;;;;;;5063126;28;20211;-66
2022/11/23 02:14:45;;;;;;;2.40;2.00;;;9.80;99.00;;;;;;5062791;28;20204;-66
2022/11/23 02:17:13;;;;;;;3.30;2.13;;;9.80;99.00;;;;;;5062051;28;20297;-66
2022/11/23 02:19:49;;;;;;;2.10;1.90;;;9.80;99.00;;;;;;5062936;28;20595;-67
2022/11/23 02:22:51;;;;;;;2.93;2.40;;;9.80;99.00;;;;;;5065476;28;20193;-66
2022/11/23 02:25:29;;;;;;;2.00;1.80;;;9.80;99.00;;;;;;5063441;28;20228;-66
2022/11/23 02:27:57;;;;;;;2.20;2.00;;;9.80;99.10;;;;;;5065913;28;20207;-66
2022/11/23 02:30:27;;;;;;;3.03;2.73;;;9.70;99.10;;;;;;5069293;28;20204;-66
2022/11/23 02:32:55;;;;;;;2.10;1.90;;;9.70;99.10;;;;;;5061496;28;20525;-66
2022/11/23 02:35:24;;;;;;;2.30;1.93;;;9.80;99.10;;;;;;5067113;28;20196;-66
2022/11/23 02:37:52;;;;;;;2.07;1.87;;;9.70;99.10;;;;;;5059645;28;20294;-66
2022/11/23 02:40:27;;;;;;;2.10;1.90;;;9.70;99.10;;;;;;5062136;28;20206;-66
2022/11/23 02:42:57;;;;;;;2.27;2.07;;;9.70;99.10;;;;;;5063418;28;20654;-66
2022/11/23 02:45:53;;;;;;;2.20;2.00;;;9.80;99.10;;;;;;5065212;28;20601;-66
2022/11/23 02:48:24;;;;;;;2.73;2.10;;;9.80;99.10;;;;;;5061702;28;20715;-66
2022/11/23 02:50:51;;;;;;;2.20;2.00;;;9.80;99.10;;;;;;5063516;28;20216;-66
2022/11/23 02:53:18;;;;;;;3.60;2.77;;;9.70;99.10;;;;;;5066421;28;20257;-66
2022/11/23 02:55:46;;;;;;;2.60;2.40;;;9.80;99.10;;;;;;5065812;28;20224;-66
2022/11/23 02:58:13;;;;;;;4.33;2.20;;;9.70;99.10;;;;;;5064874;28;20596;-66
2022/11/23 03:00:41;;;;;;;2.73;2.40;;;9.70;99.10;;;;;;5063792;28;20269;-66
2022/11/23 03:03:08;;;;;;;3.93;2.70;;;9.70;99.00;;;;;;5066894;28;20219;-67
2022/11/23 03:05:35;;;;;;;3.67;2.77;;;9.70;99.00;;;;;;5077022;28;20590;-66
2022/11/23 03:08:05;;;;;;;2.67;2.47;;;9.70;99.10;;;;;;5060030;28;20241;-66
2022/11/23 03:10:33;;;;;;;3.20;2.83;;;9.70;99.00;;;;;;5076687;28;20243;-66
2022/11/23 03:13:00;;;;;;;3.30;2.37;;;9.70;99.00;;;;;;5061676;28;20218;-66
2022/11/23 03:15:31;;;;;;;2.97;2.67;;;9.70;99.00;;;;;;5065297;28;20208;-66
2022/11/23 03:17:59;;;;;;;3.53;2.30;;;9.70;99.00;;;;;;5059374;28;20252;-66
2022/11/23 03:20:28;;;;;;;5.93;2.60;;;9.60;99.00;;;;;;5061624;28;20204;-66
2022/11/23 03:22:55;;;;;;;4.87;2.67;;;9.60;99.00;;;;;;5064201;28;20590;-66
2022/11/23 03:25:23;;;;;;;3.10;2.53;;;9.60;99.00;;;;;;5062992;28;20231;-66
2022/11/23 03:27:53;;;;;;;3.17;2.43;;;9.60;99.00;;;;;;5056722;28;20805;-66
2022/11/23 03:30:21;;;;;;;3.77;2.43;;;9.60;99.00;;;;;;5061698;28;20194;-66
2022/11/23 03:32:48;;;;;;;3.90;2.63;;;9.70;99.10;;;;;;5053631;28;20199;-66
2022/11/23 03:35:17;;;;;;;3.43;2.50;;;9.70;99.10;;;;;;5074748;28;20231;-66
2022/11/23 03:38:01;;;;;;;5.73;2.10;;;9.70;99.00;;;;;;5076270;28;20217;-66
2022/11/23 03:40:28;;;;;;;2.93;2.50;;;9.70;99.00;;;;;;5064814;28;20231;-66
2022/11/23 03:43:19;;;;;;;4.57;2.63;;;9.70;99.00;;;;;;5064210;28;20218;-67
2022/11/23 03:45:46;;;;;;;2.47;2.23;;;9.70;99.00;;;;;;5064973;28;20337;-66
2022/11/23 03:48:14;;;;;;;2.77;2.33;;;9.60;98.90;;;;;;5057544;28;20636;-66
2022/11/23 03:50:42;;;;;;;2.33;2.10;;;9.60;98.90;;;;;;5057900;28;20561;-66
2022/11/23 03:53:10;;;;;;;3.30;2.40;;;9.70;99.00;;;;;;5059690;28;20211;-66
2022/11/23 03:55:37;;;;;;;2.90;2.23;;;9.60;98.90;;;;;;5078745;28;20215;-66
2022/11/23 03:58:04;;;;;;;3.50;2.63;;;9.60;99.10;;;;;;5064202;28;20217;-66
2022/11/23 04:00:34;;;;;;;2.47;2.27;;;9.60;98.90;;;;;;5063416;28;20199;-66
2022/11/23 04:03:02;;;;;;;4.10;1.80;;;9.50;98.90;;;;;;5066912;28;20211;-66
2022/11/23 04:05:47;;;;;;;4.03;2.30;;;9.60;98.90;;;;;;5059884;28;20216;-66
2022/11/23 04:08:52;;;;;;;3.17;2.77;;;9.50;98.90;;;;;;5059225;28;20234;-66
2022/11/23 04:11:39;;;;;;;3.03;2.50;;;9.50;98.90;;;;;;5062012;28;20209;-66
2022/11/23 04:14:07;;;;;;;3.10;2.43;;;9.40;98.80;;;;;;5063801;28;20207;-66
2022/11/23 04:16:34;;;;;;;5.47;2.00;;;9.40;98.80;;;;;;5062110;28;20584;-66
2022/11/23 04:19:02;;;;;;;2.27;1.90;;;9.40;98.80;;;;;;5068234;28;20191;-66
2022/11/23 04:21:29;;;;;;;7.53;2.00;;;9.30;98.80;;;;;;5057744;28;20214;-66
2022/11/23 04:23:57;;;;;;;2.53;2.00;;;9.30;98.70;;;;;;5062087;28;20196;-66
2022/11/23 04:26:24;;;;;;;3.17;2.33;;;9.20;98.70;;;;;;5067727;28;20235;-66
2022/11/23 04:28:53;;;;;;;2.33;1.93;;;9.20;98.70;;;;;;5073330;28;20215;-66
2022/11/23 04:31:20;;;;;;;2.20;2.00;;;9.10;98.70;;;;;;5063775;28;20248;-66
2022/11/23 04:34:03;;;;;;;5.50;2.00;;;9.10;98.80;;;;;;5065222;28;20210;-66
2022/11/23 04:36:30;;;;;;;3.27;2.20;;;9.10;98.80;;;;;;5078083;28;20206;-66
2022/11/23 04:38:58;;;;;;;4.43;1.83;;;9.00;98.80;;;;;;5065620;28;20225;-66
2022/11/23 04:41:34;;;;;;;5.20;2.50;;;9.00;98.80;;;;;;5061413;28;20699;-66
2022/11/23 04:44:03;;;;;;;2.60;1.80;;;9.00;98.80;;;;;;5060880;28;20293;-66
2022/11/23 04:46:34;;;;;;;2.97;1.87;;;9.00;98.80;;;;;;5070865;28;20298;-66
2022/11/23 04:49:08;;;;;;;2.90;1.97;;;8.90;98.80;;;;;;5070161;28;20227;-66
2022/11/23 04:51:36;;;;;;;3.13;1.77;;;8.90;98.80;;;;;;5080088;28;20211;-66
2022/11/23 04:54:03;;;;;;;3.93;2.07;;;8.90;98.80;;;;;;5053353;28;20226;-66
2022/11/23 04:56:39;;;;;;;2.33;1.80;;;8.80;98.80;;;;;;5064001;28;20625;-66
2022/11/23 04:59:06;;;;;;;1.97;1.57;;;8.80;98.80;;;;;;5062642;28;20213;-66
2022/11/23 05:01:33;;;;;;;2.83;1.63;;;8.80;98.80;;;;;;5076579;28;20216;-66
2022/11/23 05:04:36;;;;;;;1.67;1.30;;;8.80;98.80;;;;;;5074636;28;20212;-66
2022/11/23 05:07:04;;;;;;;1.77;1.37;;;8.70;98.80;;;;;;5062135;28;20292;-66
2022/11/23 05:09:33;;;;;;;2.57;1.47;;;8.70;98.80;;;;;;5061627;28;20615;-66
2022/11/23 05:12:21;;;;;;;2.13;1.70;;;8.70;98.80;;;;;;5066019;28;20646;-66
2022/11/23 05:14:49;;;;;;;1.77;1.53;;;8.60;98.80;;;;;;5068320;28;20202;-66
2022/11/23 05:17:22;;;;;;;2.53;1.63;;;8.60;98.70;;;;;;5067646;28;20214;-66
2022/11/23 05:19:52;;;;;;;1.97;1.47;;;8.60;98.70;;;;;;5078505;28;20302;-66
2022/11/23 05:22:20;;;;;;;1.47;1.37;;;8.50;98.70;;;;;;5079415;28;20229;-66
2022/11/23 05:24:48;;;;;;;1.80;1.70;;;8.50;98.70;;;;;;5067680;28;20203;-66
2022/11/23 05:27:19;;;;;;;5.10;1.30;;;8.40;98.70;;;;;;5067271;28;20217;-66
2022/11/23 05:29:46;;;;;;;1.47;1.27;;;8.40;98.70;;;;;;5058030;28;20229;-66
2022/11/23 05:32:13;;;;;;;2.73;1.37;;;8.40;98.70;;;;;;5065144;28;20549;-66
2022/11/23 05:34:41;;;;;;;2.90;1.70;;;8.40;98.70;;;;;;5084936;28;20210;-66
2022/11/23 05:37:11;;;;;;;1.60;1.50;;;8.40;98.70;;;;;;5067857;28;20317;-66
2022/11/23 05:39:47;;;;;;;2.30;1.70;;;8.30;98.70;;;;;;5077033;28;20201;-66
2022/11/23 05:42:15;;;;;;;2.40;1.50;;;8.30;98.70;;;;;;5070776;28;20285;-66
2022/11/23 05:44:42;;;;;;;1.57;1.40;;;8.30;98.80;;;;;;5066785;28;20205;-66
2022/11/23 05:47:18;;;;;;;2.17;1.37;;;8.30;98.80;;;;;;5061661;28;20580;-66
2022/11/23 05:49:47;;;;;;;1.60;1.50;;;8.20;98.80;;;;;;5058083;28;20284;-66
2022/11/23 05:52:16;;;;;;;1.30;1.20;;;8.20;98.80;;;;;;5066655;28;20590;-66
2022/11/23 05:54:45;;;;;;;2.00;1.47;;;8.20;99.10;;;;;;5065958;28;20209;-66
2022/11/23 05:57:14;;;;;;;3.57;1.40;;;8.20;98.80;;;;;;5062888;28;20293;-66
2022/11/23 05:59:43;;;;;;;1.90;1.43;;;8.10;98.90;;;;;;5067883;28;20261;-66
2022/11/23 06:02:16;;;;;;;1.77;1.47;;;8.10;98.90;;;;;;5068298;28;20580;-66
2022/11/23 06:04:43;;;;;;;1.93;1.40;;;8.10;98.90;;;;;;5065473;28;20197;-66
2022/11/23 06:07:15;;;;;;;2.27;1.70;;;8.10;98.90;;;;;;5067343;28;20816;-66
2022/11/23 06:10:04;;;;;;;1.90;1.57;;;8.00;98.80;;;;;;5060971;28;20248;-66
2022/11/23 06:12:33;;;;;;;3.87;1.57;;;8.00;98.80;;;;;;5079911;28;20190;-66
2022/11/23 06:15:04;;;;;;;1.90;1.30;;;8.00;98.80;;;;;;5080959;28;20567;-66
2022/11/23 06:17:32;;;;;;;1.87;1.60;;;8.00;98.80;;;;;;5066421;28;20210;-66
2022/11/23 06:20:05;;;;;;;1.53;1.43;;;7.90;98.80;;;;;;5060060;28;20195;-66
2022/11/23 06:22:35;;;;;;;2.00;1.70;;;7.90;98.90;;;;;;5060415;28;20200;-66
2022/11/23 06:25:05;;;;;;;2.30;1.47;;;7.90;98.90;;;;;;5078210;28;20607;-66
2022/11/23 06:27:40;;;;;;;1.63;1.37;;;7.90;98.80;;;;;;5067097;28;20256;-66
2022/11/23 06:30:15;;;;;;;2.30;1.57;;;7.80;98.70;;;;;;5065364;28;20213;-66
2022/11/23 06:32:43;;;;;;;2.57;1.67;;;7.80;98.70;;;;;;5062587;28;20210;-66
2022/11/23 06:35:10;;;;;;;2.27;1.80;;;7.80;98.60;;;;;;5061344;28;20203;-66
2022/11/23 06:37:39;;;;;;;1.93;1.63;;;7.70;98.60;;;;;;5080004;28;20220;-66
2022/11/23 06:40:07;;;;;;;3.00;1.80;;;7.70;98.50;;;;;;5075269;28;20672;-66
2022/11/23 06:42:34;;;;;;;2.17;1.83;;;7.60;98.50;;;;;;5062334;28;20207;-66
2022/11/23 06:45:23;;;;;;;3.93;1.60;;;7.60;98.60;;;;;;5067133;28;20201;-66
2022/11/23 06:47:55;;;;;;;3.40;1.70;;;7.60;98.80;;;;;;5062839;28;20658;-66
2022/11/23 06:50:22;;;;;;;1.93;1.50;;;7.60;98.90;;;;;;5057974;28;20217;-66
2022/11/23 06:52:54;;;;;;;2.23;1.40;;;7.70;99.00;;;;;;5064455;28;20208;-66
2022/11/23 06:55:28;;;;;;;2.97;1.57;;;7.70;99.10;;;;;;5067514;28;20216;-66
2022/11/23 06:57:58;;;;;;;4.13;1.87;;;7.90;99.20;;;;;;5058291;28;20562;-66
2022/11/23 07:00:25;;;;;;;2.37;1.67;;;8.00;98.90;;;;;;5070323;28;20209;-66
2022/11/23 07:02:53;;;;;;;4.53;1.80;;;8.10;98.50;;;;;;5077531;28;20203;-66
2022/11/23 07:05:23;;;;;;;2.53;1.50;;;8.10;98.40;;;;;;5066770;28;20217;-66
2022/11/23 07:07:50;;;;;;;3.57;1.43;;;8.20;98.40;;;;;;5079087;28;20280;-66
2022/11/23 07:10:24;;;;;;;1.57;1.47;;;8.20;98.40;;;;;;5061544;28;20238;-66
2022/11/23 07:13:07;;;;;;;2.23;1.40;;;8.20;98.50;;;;;;5066417;28;20567;-66
2022/11/23 07:15:39;;;;;;;1.50;1.30;;;8.20;98.60;;;;;;5062429;28;20217;-66
2022/11/23 07:18:06;;;;;;;1.50;1.27;;;8.30;98.70;;;;;;5078432;28;20645;-66
2022/11/23 07:20:35;;;;;;;2.00;1.10;;;8.30;98.70;;;;;;5075155;28;20677;-66
2022/11/23 07:23:09;;;;;;;1.10;1.00;;;8.40;98.70;;;;;;5067152;28;20302;-66
2022/11/23 07:25:38;;;;;;;2.00;1.70;;;8.50;98.80;;;;;;5067264;28;20203;-66
2022/11/23 07:28:07;;;;;;;1.27;1.17;;;8.60;98.80;;;;;;5063385;28;20206;-66
2022/11/23 07:30:35;;;;;;;2.10;1.60;;;8.70;98.80;;;;;;5066206;28;20194;-66
2022/11/23 07:33:09;;;;;;;3.80;1.60;;;8.80;98.80;;;;;;5061414;28;20237;-66
2022/11/23 07:35:38;;;;;;;1.90;1.80;;;8.90;98.80;;;;;;5073914;28;20246;-66
2022/11/23 07:38:09;;;;;;;2.23;1.60;;;9.00;98.70;;;;;;5059139;28;20219;-66
2022/11/23 07:40:37;;;;;;;3.77;1.80;;;9.10;98.60;;;;;;5059194;28;20221;-66
2022/11/23 07:43:12;;;;;;;2.13;1.70;;;9.20;98.60;;;;;;5062527;28;20640;-66
2022/11/23 07:45:39;;;;;;;9.10;1.77;;;9.20;98.40;;;;;;5060451;28;20191;-66
2022/11/23 07:48:09;;;;;;;3.07;2.10;;;9.30;98.30;;;;;;5074826;28;20229;-66
2022/11/23 07:50:37;;;;;;;2.83;1.80;;;9.40;98.20;;;;;;5058755;28;20217;-66
2022/11/23 07:53:06;;;;;;;2.53;1.97;;;9.50;98.10;;;;;;5059317;28;20233;-66
2022/11/23 07:55:33;;;;;;;2.83;1.80;;;9.50;97.90;;;;;;5069922;28;20232;-66
2022/11/23 07:58:00;;;;;;;2.97;2.00;;;9.60;97.80;;;;;;5062051;28;20474;-66
2022/11/23 08:00:28;;;;;;;3.40;1.50;;;9.70;97.70;;;;;;5063189;28;20199;-66
2022/11/23 08:02:57;;;;;;;3.60;1.77;;;9.70;97.60;;;;;;5062291;28;20217;-66
2022/11/23 08:05:44;;;;;;;1.77;1.57;;;9.80;97.40;;;;;;5064423;28;20199;-66
2022/11/23 08:08:11;;;;;;;1.70;1.27;;;9.90;97.20;;;;;;5062359;28;21118;-66
2022/11/23 08:10:39;;;;;;;1.50;1.40;;;9.90;97.10;;;;;;5063025;28;20593;-66
2022/11/23 08:13:13;;;;;;;3.40;1.40;;;9.90;96.90;;;;;;5065362;28;20203;-66
2022/11/23 08:15:40;;;;;;;4.13;1.67;;;10.00;96.90;;;;;;5068732;28;20203;-66
2022/11/23 08:18:08;;;;;;;1.50;1.40;;;10.00;96.70;;;;;;5065731;28;20217;-66
2022/11/23 08:20:35;;;;;;;1.87;1.20;;;10.10;96.50;;;;;;5065335;28;20199;-66
2022/11/23 08:23:02;;;;;;;1.73;1.40;;;10.10;96.40;;;;;;5070972;28;20221;-66
2022/11/23 08:25:30;;;;;;;1.87;1.70;;;10.20;96.20;;;;;;5061168;28;20586;-66
2022/11/23 08:27:59;;;;;;;2.13;1.93;;;10.20;96.10;;;;;;5059289;28;20210;-66
2022/11/23 08:30:28;;;;;;;2.17;1.97;;;10.20;96.00;;;;;;5064198;28;20258;-66
2022/11/23 08:32:55;;;;;;;4.57;2.33;;;10.30;95.90;;;;;;5063318;28;20529;-66
2022/11/23 08:35:23;;;;;;;2.67;2.17;;;10.40;95.80;;;;;;5064643;28;20223;-66
2022/11/23 08:37:50;;;;;;;2.13;1.83;;;10.40;95.70;;;;;;5063338;28;20600;-66
2022/11/23 08:40:17;;;;;;;2.03;1.80;;;10.50;95.60;;;;;;5065628;28;20618;-66
2022/11/23 08:42:51;;;;;;;2.37;1.77;;;10.60;95.60;;;;;;5061920;28;20211;-66
2022/11/23 08:45:18;;;;;;;2.03;1.70;;;10.70;95.40;;;;;;5064443;28;20203;-66
2022/11/23 08:47:45;;;;;;;2.17;1.80;;;10.80;95.10;;;;;;5066010;28;20210;-66
2022/11/23 08:50:13;;;;;;;3.83;1.87;;;10.80;94.90;;;;;;5063542;28;20196;-66
2022/11/23 08:52:40;;;;;;;3.10;1.80;;;10.90;94.80;;;;;;5065328;28;20256;-66
2022/11/23 08:55:07;;;;;;;2.80;1.60;;;10.90;94.60;;;;;;5063972;28;20229;-66
2022/11/23 08:57:34;;;;;;;4.40;2.53;;;11.00;94.30;;;;;;5062194;28;20209;-66
2022/11/23 09:00:03;;;;;;;3.40;2.30;;;11.00;94.10;;;;;;5065548;28;20216;-66
2022/11/23 09:02:30;;;;;;;3.70;2.50;;;11.10;93.90;;;;;;5067465;28;20203;-66
2022/11/23 09:04:57;;;;;;;2.90;2.30;;;11.10;93.60;;;;;;5064770;28;20517;-66
2022/11/23 09:07:24;;;;;;;2.40;2.20;;;11.10;93.40;;;;;;5066291;28;20254;-66
2022/11/23 09:09:51;;;;;;;2.20;2.00;;;11.20;93.10;;;;;;5064562;28;20547;-66
2022/11/23 09:12:18;;;;;;;3.60;2.57;;;11.20;92.90;;;;;;5065728;28;20200;-66
2022/11/23 09:14:45;;;;;;;2.93;2.30;;;11.30;92.80;;;;;;5068742;28;20206;-66
2022/11/23 09:17:12;;;;;;;4.27;2.70;;;11.40;92.30;;;;;;5062615;28;20200;-66
2022/11/23 09:19:39;;;;;;;8.70;2.87;;;11.40;92.10;;;;;;5062430;28;20219;-66
2022/11/23 09:22:06;;;;;;;2.67;2.13;;;11.50;92.00;;;;;;5060001;28;20207;-66
2022/11/23 09:24:33;;;;;;;7.30;2.50;;;11.50;91.90;;;;;;5064591;28;20200;-66
2022/11/23 09:27:01;;;;;;;3.97;2.20;;;11.60;91.60;;;;;;5065976;28;20257;-66
2022/11/23 09:29:28;;;;;;;3.03;2.57;;;11.60;91.50;;;;;;5066948;28;20204;-66
2022/11/23 09:31:55;;;;;;;3.10;2.20;;;11.70;91.40;;;;;;5064500;28;20267;-66
2022/11/23 09:34:24;;;;;;;4.63;2.57;;;11.80;91.20;;;;;;5069275;28;20528;-66
2022/11/23 09:36:52;;;;;;;4.33;2.50;;;11.80;90.60;;;;;;5062456;28;20192;-66
2022/11/23 09:39:19;;;;;;;3.80;2.17;;;11.90;90.60;;;;;;5058398;28;20292;-66
2022/11/23 09:42:03;;;;;;;4.03;2.43;;;11.90;90.50;;;;;;5064188;28;20207;-66
2022/11/23 09:45:00;;;;;;;5.60;3.20;;;12.00;90.50;;;;;;5066576;28;20646;-66
2022/11/23 09:47:30;;;;;;;4.60;2.80;;;12.00;89.30;;;;;;5062550;28;20714;-66
2022/11/23 09:50:06;;;;;;;2.67;2.43;;;12.10;88.40;;;;;;5061958;28;20210;-66
2022/11/23 09:52:39;;;;;;;3.37;2.63;;;12.00;88.50;;;;;;5065015;28;20296;-66
2022/11/23 09:55:20;;;;;;;3.20;2.67;;;12.10;89.10;;;;;;5065833;28;20203;-66
2022/11/23 09:57:50;;;;;;;7.40;3.40;;;12.20;89.50;;;;;;5059423;28;20203;-67
2022/11/23 10:00:22;;;;;;;4.67;3.57;;;12.30;89.50;;;;;;5062448;28;20284;-66
2022/11/23 10:02:49;;;;;;;6.00;3.27;;;12.30;89.20;;;;;;5064137;28;20199;-66
2022/11/23 10:05:25;;;;;;;4.23;3.70;;;12.30;87.40;;;;;;5063113;28;20259;-66
2022/11/23 10:08:15;;;;;;;5.27;4.07;;;12.40;88.00;;;;;;5059766;28;20275;-66
2022/11/23 10:11:06;;;;;;;5.03;3.37;;;12.40;88.60;;;;;;5057876;28;20256;-66
2022/11/23 10:13:43;;;;;;;5.27;3.70;;;12.50;88.90;;;;;;5060740;28;20262;-66
2022/11/23 10:16:35;;;;;;;7.60;3.70;;;12.60;88.90;;;;;;5067545;28;20221;-66
2022/11/23 10:19:08;;;;;;;7.83;4.37;;;12.60;88.70;;;;;;5063953;28;20218;-66
2022/11/23 10:22:04;;;;;;;7.93;4.67;;;12.70;88.50;;;;;;5060470;28;20602;-66
2022/11/23 10:24:44;;;;;;;9.23;4.60;;;12.80;88.40;;;;;;5063122;28;20535;-66
2022/11/23 10:27:15;;;;;;;4.80;4.37;;;12.80;88.10;;;;;;5061332;28;20205;-66
2022/11/23 10:29:43;;;;;;;6.80;4.37;;;12.90;88.10;;;;;;5060430;28;20214;-66
2022/11/23 10:32:24;;;;;;;5.60;4.47;;;12.90;87.90;;;;;;5065848;28;20202;-66
2022/11/23 10:35:11;;;;;;;8.17;5.13;;;13.00;87.70;;;;;;5064283;28;20207;-66
2022/11/23 10:37:39;;;;;;;5.50;4.53;;;13.00;87.60;;;;;;5062330;28;20645;-66
2022/11/23 10:40:25;;;;;;;6.10;4.60;;;13.10;87.70;;;;;;5061217;28;20253;-66
2022/11/23 10:43:21;;;;;;;7.43;4.37;;;13.10;87.50;;;;;;5070149;28;20650;-67
2022/11/23 10:45:48;;;;;;;10.07;5.17;;;13.20;87.40;;;;;;5055511;28;20204;-66
2022/11/23 10:48:34;;;;;;;6.80;4.43;;;13.30;87.60;;;;;;5059227;28;20195;-66
2022/11/23 10:51:34;;;;;;;6.27;4.40;;;13.40;87.70;;;;;;5061910;28;20196;-66
2022/11/23 10:54:05;;;;;;;10.70;4.30;;;13.40;87.70;;;;;;5064258;28;20198;-67
2022/11/23 10:56:33;;;;;;;5.27;3.90;;;13.40;87.80;;;;;;5060610;28;20203;-66
2022/11/23 10:59:00;;;;;;;11.63;4.20;;;13.50;87.70;;;;;;5062187;28;20230;-66
2022/11/23 11:01:29;;;;;;;5.73;4.77;;;13.60;87.50;;;;;;5059608;28;20292;-66
2022/11/23 11:04:02;;;;;;;4.63;3.70;;;13.60;87.30;;;;;;5068893;28;20204;-66
2022/11/23 11:06:33;;;;;;;4.13;3.80;;;13.70;87.20;;;;;;5060897;28;20193;-67
2022/11/23 11:09:03;;;;;;;6.87;3.67;;;13.80;86.20;;;;;;5060443;28;20246;-66
2022/11/23 11:11:38;;;;;;;3.97;3.57;;;13.90;86.40;;;;;;5064854;28;20214;-66
2022/11/23 11:14:14;;;;;;;4.07;3.67;;;13.90;86.20;;;;;;5059661;28;20196;-66
2022/11/23 11:16:49;;;;;;;5.00;3.17;;;14.00;86.00;;;;;;5059783;28;20232;-66
2022/11/23 11:19:34;;;;;;;4.03;3.63;;;14.10;85.70;;;;;;5060761;28;20332;-66
2022/11/23 11:22:23;;;;;;;4.17;3.33;;;14.10;85.00;;;;;;5057571;28;20197;-67
2022/11/23 11:24:52;;;;;;;3.33;3.03;;;14.20;83.60;;;;;;5066572;28;20206;-66
2022/11/23 11:27:25;;;;;;;3.90;3.50;;;14.30;83.40;;;;;;5063631;28;20259;-66
2022/11/23 11:30:03;;;;;;;3.80;3.50;;;14.30;82.70;;;;;;5062282;28;20215;-66
2022/11/23 11:32:51;;;;;;;4.90;4.03;;;14.30;82.10;;;;;;5062001;28;20206;-66
2022/11/23 11:35:19;;;;;;;4.00;3.60;;;14.40;80.50;;;;;;5060000;28;20279;-66
2022/11/23 11:37:50;;;;;;;4.33;3.93;;;14.40;81.40;;;;;;5054193;28;20217;-67
2022/11/23 11:40:40;;;;;;;3.90;3.50;;;14.40;81.40;;;;;;5059700;28;20829;-67
2022/11/23 11:43:31;;;;;;;5.30;4.10;;;14.50;81.40;;;;;;5062091;28;20219;-67
2022/11/23 11:46:21;;;;;;;5.93;4.23;;;14.60;81.60;;;;;;5060496;28;20223;-66
2022/11/23 11:49:08;;;;;;;4.33;3.93;;;14.60;81.70;;;;;;5060727;28;20203;-66
2022/11/23 11:52:10;;;;;;;6.13;4.53;;;14.70;81.70;;;;;;5055010;28;20232;-66
2022/11/23 11:54:53;;;;;;;6.83;4.40;;;14.80;80.70;;;;;;5052185;28;20674;-66
2022/11/23 11:57:28;;;;;;;4.50;4.10;;;14.90;80.50;;;;;;5059508;28;20211;-67
2022/11/23 12:00:01;;;;;;;4.10;3.70;;;14.90;80.40;;;;;;5062723;28;20222;-66
2022/11/23 12:02:41;;;;;;;4.97;4.40;;;14.90;80.10;;;;;;5064931;28;20208;-66
2022/11/23 12:05:19;;;;;;;4.83;4.33;;;15.00;79.50;;;;;;5060471;28;20803;-66
2022/11/23 12:08:01;;;;;;;4.90;4.37;;;15.00;78.20;;;;;;5058319;28;20452;-67
2022/11/23 12:10:43;;;;;;;4.87;4.37;;;15.00;78.80;;;;;;5062768;28;20326;-67
2022/11/23 12:13:35;;;;;;;7.87;4.10;;;15.10;79.20;;;;;;5057190;28;20314;-67
2022/11/23 12:16:11;;;;;;;5.83;4.80;;;15.10;77.50;;;;;;5065809;28;20647;-66
2022/11/23 12:18:57;;;;;;;8.63;4.90;;;15.10;77.00;;;;;;5060001;28;20281;-67
2022/11/23 12:21:51;;;;;;;6.57;4.13;;;15.10;77.80;;;;;;5062876;28;20221;-66
2022/11/23 12:24:43;;;;;;;4.43;3.70;;;15.20;78.40;;;;;;5062911;28;20640;-67
2022/11/23 12:27:26;;;;;;;5.83;4.37;;;15.20;78.30;;;;;;5060171;28;20201;-66
2022/11/23 12:30:24;;;;;;;5.30;4.23;;;15.20;77.20;;;;;;5065587;28;20329;-67
2022/11/23 12:33:06;;;;;;;5.10;3.90;;;15.30;77.40;;;;;;5058861;28;20627;-66
2022/11/23 12:36:06;;;;;;;4.07;3.67;;;15.30;77.00;;;;;;5065068;28;20655;-67
2022/11/23 12:38:59;;;;;;;4.00;3.43;;;15.30;76.70;;;;;;5063019;28;20209;-67
2022/11/23 12:41:46;;;;;;;5.53;4.63;;;15.30;76.40;;;;;;5060241;28;20202;-66
2022/11/23 12:44:44;;;;;;;5.87;4.70;;;15.30;75.30;;;;;;5064231;28;20194;-67
2022/11/23 12:47:14;;;;;;;5.03;4.63;;;15.20;75.10;;;;;;5060095;28;20206;-66
2022/11/23 12:50:09;;;;;;;6.47;4.57;;;15.20;75.00;;;;;;5060039;28;20686;-67
2022/11/23 12:52:57;;;;;;;5.07;4.00;;;15.10;74.80;;;;;;5062950;28;20217;-66
2022/11/23 12:55:48;;;;;;;5.43;4.60;;;15.10;73.20;;;;;;5063809;28;20200;-66
2022/11/23 12:58:26;;;;;;;4.00;3.60;;;15.00;74.20;;;;;;5067352;28;20639;-66
2022/11/23 13:01:05;;;;;;;4.47;4.07;;;15.00;73.30;;;;;;5063461;28;20235;-66
2022/11/23 13:03:33;;;;;;;3.90;3.43;;;14.90;72.70;;;;;;5070636;28;20190;-66
2022/11/23 13:06:21;;;;;;;4.43;3.77;;;14.90;73.30;;;;;;5063345;28;20262;-66
2022/11/23 13:09:09;;;;;;;4.67;4.13;;;14.90;73.80;;;;;;5060665;28;20644;-66
2022/11/23 13:12:04;;;;;;;4.10;3.67;;;14.90;73.70;;;;;;5064706;28;20210;-66
2022/11/23 13:14:55;;;;;;;5.33;4.23;;;14.90;73.60;;;;;;5063506;28;20197;-66
2022/11/23 13:17:37;;;;;;;5.40;4.67;;;14.90;73.20;;;;;;5064758;28;20538;-67
2022/11/23 13:20:41;;;;;;;4.97;4.47;;;14.80;72.80;;;;;;5070501;28;20212;-67
2022/11/23 13:23:08;;;;;;;4.97;4.53;;;14.80;72.80;;;;;;5060505;28;20215;-66